Time;durP1;ratioP1;P1;durP2;ratioP2;P2;SDS_P1;SDS_P2;PMS_P1;PMS_P2;Temp;Humidity;BMP_temperature;BMP_pressure;BME280_temperature;BME280_humidity;BME280_pressure;Samples;Min_cycle;Max_cycle;Signal;HPM_P1;HPM_P2
2021/08/15 00:02:00;;;;;;;7.60;5.43;;;20.20;99.90;;;;;;5052366;28;20184;-83
2021/08/15 00:04:26;;;;;;;7.70;5.60;;;20.10;99.90;;;;;;5051770;28;20205;-83
2021/08/15 00:06:55;;;;;;;8.90;6.03;;;20.10;99.90;;;;;;5052066;28;20913;-83
2021/08/15 00:09:21;;;;;;;8.90;5.50;;;20.10;99.90;;;;;;5051736;28;20282;-83
2021/08/15 00:11:49;;;;;;;8.17;6.20;;;20.00;99.90;;;;;;5052434;28;20981;-78
2021/08/15 00:14:15;;;;;;;8.10;5.60;;;20.00;99.90;;;;;;5051479;28;20716;-78
2021/08/15 00:16:41;;;;;;;7.73;6.33;;;20.00;99.90;;;;;;5017248;28;20674;-77
2021/08/15 00:19:07;;;;;;;8.47;5.70;;;19.90;99.90;;;;;;5033701;28;20200;-77
2021/08/15 00:21:34;;;;;;;8.00;5.43;;;19.90;99.90;;;;;;5051838;28;21191;-77
2021/08/15 00:24:00;;;;;;;10.87;5.00;;;19.90;99.90;;;;;;5051527;28;20606;-77
2021/08/15 00:26:26;;;;;;;7.10;4.80;;;19.90;99.90;;;;;;5017776;28;20698;-77
2021/08/15 00:28:52;;;;;;;7.20;4.70;;;19.90;99.90;;;;;;5021106;28;20623;-77
2021/08/15 00:31:18;;;;;;;7.10;4.70;;;19.80;99.90;;;;;;5033687;28;20571;-77
2021/08/15 00:33:43;;;;;;;10.17;5.80;;;19.80;99.90;;;;;;5033589;28;20655;-77
2021/08/15 00:36:09;;;;;;;8.77;5.43;;;19.80;99.90;;;;;;5051079;28;20203;-77
2021/08/15 00:38:35;;;;;;;8.57;5.33;;;19.80;99.90;;;;;;5017021;28;20288;-77
2021/08/15 00:41:01;;;;;;;8.17;5.50;;;19.80;99.90;;;;;;5051486;28;20703;-77
2021/08/15 00:43:30;;;;;;;6.33;4.90;;;19.70;99.90;;;;;;5051143;28;20226;-77
2021/08/15 00:45:56;;;;;;;7.70;4.77;;;19.80;99.90;;;;;;5050814;28;20613;-78
2021/08/15 00:48:22;;;;;;;12.47;5.83;;;19.70;99.90;;;;;;5051390;28;20596;-78
2021/08/15 00:50:47;;;;;;;7.67;4.40;;;19.70;99.90;;;;;;5033430;28;20169;-78
2021/08/15 00:53:13;;;;;;;7.33;5.40;;;19.70;99.90;;;;;;5033400;28;20227;-77
2021/08/15 00:55:39;;;;;;;6.10;5.00;;;19.60;99.90;;;;;;5050754;28;20180;-77
2021/08/15 00:58:08;;;;;;;5.33;4.77;;;19.60;99.90;;;;;;5051370;28;20262;-77
2021/08/15 01:00:35;;;;;;;10.83;5.57;;;19.60;99.90;;;;;;5033260;28;20586;-78
2021/08/15 01:03:01;;;;;;;9.13;4.90;;;19.60;99.90;;;;;;5051285;28;20618;-78
2021/08/15 01:05:31;;;;;;;8.20;4.53;;;19.60;99.90;;;;;;5056080;28;20556;-78
2021/08/15 01:07:58;;;;;;;5.27;4.17;;;19.60;99.90;;;;;;5051397;28;20169;-77
2021/08/15 01:10:24;;;;;;;8.23;4.30;;;19.60;99.90;;;;;;5033302;28;21170;-78
2021/08/15 01:12:50;;;;;;;8.43;5.17;;;19.50;99.90;;;;;;5034104;28;20607;-77
2021/08/15 01:15:16;;;;;;;5.43;3.80;;;19.50;99.90;;;;;;5052029;28;20173;-77
2021/08/15 01:17:43;;;;;;;7.43;4.57;;;19.50;99.90;;;;;;5052193;28;20575;-77
2021/08/15 01:20:10;;;;;;;8.50;5.20;;;19.50;99.90;;;;;;5051797;28;20591;-77
2021/08/15 01:22:43;;;;;;;6.70;4.60;;;19.50;99.90;;;;;;5033100;28;20618;-77
2021/08/15 01:25:09;;;;;;;7.83;5.83;;;19.50;99.90;;;;;;5032898;28;20570;-77
2021/08/15 01:27:43;;;;;;;6.63;5.50;;;19.50;99.90;;;;;;5050630;28;20571;-77
2021/08/15 01:30:12;;;;;;;8.80;5.77;;;19.40;99.90;;;;;;5051229;28;21024;-77
2021/08/15 01:32:40;;;;;;;8.30;6.97;;;19.40;99.90;;;;;;5050782;28;20578;-77
2021/08/15 01:35:07;;;;;;;13.77;7.20;;;19.40;99.90;;;;;;5050951;28;20566;-77
2021/08/15 01:37:32;;;;;;;8.97;6.83;;;19.40;99.90;;;;;;5051154;28;20583;-77
2021/08/15 01:40:02;;;;;;;11.73;6.80;;;19.40;99.90;;;;;;5051977;28;20691;-77
2021/08/15 01:42:32;;;;;;;10.13;6.23;;;19.40;99.90;;;;;;5054401;28;20180;-78
2021/08/15 01:44:59;;;;;;;8.37;6.20;;;19.40;99.90;;;;;;5050684;28;20626;-78
2021/08/15 01:47:28;;;;;;;8.40;7.17;;;19.40;99.90;;;;;;5032741;28;20587;-77
2021/08/15 01:49:54;;;;;;;8.10;6.00;;;19.40;99.90;;;;;;5016540;28;20639;-77
2021/08/15 01:52:21;;;;;;;8.97;6.13;;;19.40;99.90;;;;;;5050585;28;20563;-78
2021/08/15 01:54:47;;;;;;;9.40;6.80;;;19.40;99.90;;;;;;5053111;28;20572;-77
2021/08/15 01:57:13;;;;;;;11.00;7.27;;;19.40;99.90;;;;;;5051065;28;20582;-77
2021/08/15 01:59:38;;;;;;;7.93;6.37;;;19.40;99.90;;;;;;5035656;28;20599;-78
2021/08/15 02:02:04;;;;;;;11.80;7.10;;;19.30;99.90;;;;;;5054138;28;20161;-77
2021/08/15 02:04:30;;;;;;;9.60;6.20;;;19.40;99.90;;;;;;5036353;28;20220;-78
2021/08/15 02:06:56;;;;;;;8.70;5.83;;;19.30;99.90;;;;;;5053755;28;21208;-77
2021/08/15 02:09:22;;;;;;;12.50;6.33;;;19.30;99.90;;;;;;5054152;28;20197;-77
2021/08/15 02:11:47;;;;;;;11.63;7.30;;;19.30;99.90;;;;;;5053313;28;20674;-77
2021/08/15 02:14:13;;;;;;;9.90;6.90;;;19.30;99.90;;;;;;5054087;28;20201;-78
2021/08/15 02:16:38;;;;;;;10.60;6.07;;;19.20;99.90;;;;;;5054674;28;20169;-77
2021/08/15 02:19:04;;;;;;;8.47;6.43;;;19.20;99.90;;;;;;5057752;28;20542;-77
2021/08/15 02:21:30;;;;;;;10.17;6.60;;;19.20;99.90;;;;;;5054107;28;20189;-77
2021/08/15 02:23:55;;;;;;;11.00;6.33;;;19.20;99.90;;;;;;5053745;28;20334;-77
2021/08/15 02:26:22;;;;;;;10.13;6.00;;;19.10;99.90;;;;;;5053543;28;20165;-78
2021/08/15 02:28:48;;;;;;;5.97;5.37;;;19.10;99.90;;;;;;5035737;28;20185;-78
2021/08/15 02:31:13;;;;;;;7.90;5.90;;;19.10;99.90;;;;;;5053670;28;21021;-78
2021/08/15 02:33:39;;;;;;;9.13;5.70;;;19.10;99.90;;;;;;5053648;28;20561;-78
2021/08/15 02:36:05;;;;;;;10.20;6.63;;;19.00;99.90;;;;;;5035338;28;20173;-78
2021/08/15 02:38:30;;;;;;;10.83;6.67;;;19.00;99.90;;;;;;5053518;28;20189;-77
2021/08/15 02:40:56;;;;;;;9.87;6.00;;;19.00;99.90;;;;;;5053595;28;20673;-78
2021/08/15 02:43:22;;;;;;;9.27;6.10;;;18.90;99.90;;;;;;5035485;28;20692;-78
2021/08/15 02:45:47;;;;;;;9.83;5.37;;;18.90;99.90;;;;;;5035342;28;20556;-78
2021/08/15 02:48:13;;;;;;;7.67;5.17;;;18.90;99.90;;;;;;5019059;28;20706;-78
2021/08/15 02:50:39;;;;;;;9.20;4.93;;;18.90;99.90;;;;;;5053373;28;20736;-78
2021/08/15 02:53:04;;;;;;;8.63;4.90;;;18.80;99.90;;;;;;5036436;28;20598;-78
2021/08/15 02:55:30;;;;;;;8.33;5.10;;;18.80;99.90;;;;;;5056794;28;20177;-78
2021/08/15 02:57:56;;;;;;;6.80;5.17;;;18.90;99.90;;;;;;5053360;28;20168;-78
2021/08/15 03:00:22;;;;;;;5.93;4.90;;;18.80;99.90;;;;;;5035078;28;20200;-77
2021/08/15 03:02:47;;;;;;;7.30;5.00;;;18.80;99.90;;;;;;5035277;28;20157;-77
2021/08/15 03:05:13;;;;;;;10.33;6.00;;;18.70;99.90;;;;;;5051472;28;20177;-77
2021/08/15 03:07:39;;;;;;;6.70;4.73;;;18.80;99.90;;;;;;5052994;28;20232;-77
2021/08/15 03:10:06;;;;;;;9.30;5.27;;;18.80;99.90;;;;;;5052696;28;20263;-77
2021/08/15 03:12:32;;;;;;;6.73;5.37;;;18.80;99.90;;;;;;5035277;28;20165;-77
2021/08/15 03:14:58;;;;;;;9.00;5.13;;;18.80;99.90;;;;;;5052468;28;20571;-77
2021/08/15 03:17:23;;;;;;;10.43;4.73;;;18.70;99.90;;;;;;5052809;28;20519;-78
2021/08/15 03:19:49;;;;;;;7.77;4.80;;;18.70;99.90;;;;;;5034777;28;20180;-77
2021/08/15 03:22:15;;;;;;;6.57;4.50;;;18.70;99.90;;;;;;5035662;28;20664;-77
2021/08/15 03:24:41;;;;;;;6.10;4.53;;;18.70;99.90;;;;;;5034462;28;20276;-77
2021/08/15 03:27:06;;;;;;;6.30;4.27;;;18.70;99.90;;;;;;5052756;28;20165;-77
2021/08/15 03:29:32;;;;;;;5.87;4.40;;;18.80;99.90;;;;;;5053149;28;20215;-77
2021/08/15 03:31:58;;;;;;;7.30;4.50;;;18.80;99.90;;;;;;5038468;28;21203;-77
2021/08/15 03:34:24;;;;;;;6.47;4.93;;;18.80;99.90;;;;;;5034606;28;20173;-77
2021/08/15 03:36:50;;;;;;;6.00;4.00;;;18.70;99.90;;;;;;5052129;28;20165;-77
2021/08/15 03:39:16;;;;;;;6.60;4.90;;;18.70;99.90;;;;;;5052389;28;20193;-77
2021/08/15 03:41:43;;;;;;;7.60;4.47;;;18.70;99.90;;;;;;5052246;28;20572;-77
2021/08/15 03:44:09;;;;;;;7.40;5.10;;;18.70;99.90;;;;;;5052058;28;20730;-77
2021/08/15 03:46:35;;;;;;;6.47;4.83;;;18.70;99.90;;;;;;5034005;28;20618;-77
2021/08/15 03:49:01;;;;;;;6.67;4.83;;;18.70;99.90;;;;;;5034453;28;20603;-77
2021/08/15 03:51:26;;;;;;;8.70;4.83;;;18.70;99.90;;;;;;5034281;28;20580;-77
2021/08/15 03:53:52;;;;;;;5.07;3.97;;;18.70;99.90;;;;;;5052292;28;20169;-77
2021/08/15 03:56:18;;;;;;;7.60;6.07;;;18.60;99.90;;;;;;5051553;28;20267;-77
2021/08/15 03:58:43;;;;;;;8.07;5.63;;;18.60;99.90;;;;;;5034434;28;20191;-77
2021/08/15 04:01:09;;;;;;;7.33;4.70;;;18.60;99.90;;;;;;5034526;28;20809;-77
2021/08/15 04:03:36;;;;;;;6.33;4.30;;;18.60;99.90;;;;;;5034833;28;20621;-77
2021/08/15 04:06:07;;;;;;;7.03;4.87;;;18.60;99.90;;;;;;5034585;28;20208;-77
2021/08/15 04:08:33;;;;;;;9.20;5.50;;;18.50;99.90;;;;;;5055792;28;20654;-77
2021/08/15 04:10:59;;;;;;;9.03;4.30;;;18.60;99.90;;;;;;5052091;28;20556;-77
2021/08/15 04:13:24;;;;;;;6.67;4.37;;;18.60;99.90;;;;;;5051713;28;20169;-77
2021/08/15 04:15:50;;;;;;;6.27;4.07;;;18.60;99.90;;;;;;5017296;28;20184;-78
2021/08/15 04:18:16;;;;;;;6.77;4.87;;;18.50;99.90;;;;;;5033559;28;20199;-78
2021/08/15 04:20:41;;;;;;;10.87;5.23;;;18.50;99.90;;;;;;5051767;28;20922;-77
2021/08/15 04:23:07;;;;;;;5.10;4.13;;;18.50;99.90;;;;;;5051453;28;20193;-77
2021/08/15 04:25:33;;;;;;;12.23;4.57;;;18.50;99.90;;;;;;5051307;28;20176;-77
2021/08/15 04:27:58;;;;;;;6.93;5.50;;;18.50;99.90;;;;;;5033667;28;20731;-77
2021/08/15 04:30:24;;;;;;;5.60;4.33;;;18.50;99.90;;;;;;5051673;28;20508;-77
2021/08/15 04:32:50;;;;;;;5.20;3.70;;;18.50;99.90;;;;;;5051531;28;20192;-77
2021/08/15 04:35:16;;;;;;;6.27;4.20;;;18.40;99.90;;;;;;5051112;28;20256;-77
2021/08/15 04:37:41;;;;;;;6.27;3.43;;;18.40;99.90;;;;;;5033496;28;20173;-77
2021/08/15 04:40:09;;;;;;;7.23;3.70;;;18.50;99.90;;;;;;5033662;28;20660;-77
2021/08/15 04:42:35;;;;;;;9.40;4.77;;;18.50;99.90;;;;;;5051754;28;20165;-77
2021/08/15 04:45:00;;;;;;;7.17;4.23;;;18.50;99.90;;;;;;5038575;28;21264;-77
2021/08/15 04:47:26;;;;;;;6.57;3.87;;;18.50;99.90;;;;;;5051489;28;20164;-77
2021/08/15 04:49:52;;;;;;;7.33;4.50;;;18.50;99.90;;;;;;5033094;28;20192;-77
2021/08/15 04:52:17;;;;;;;5.20;3.93;;;18.50;99.90;;;;;;5051480;28;20173;-77
2021/08/15 04:54:43;;;;;;;7.30;3.97;;;18.50;99.90;;;;;;5051052;28;20200;-77
2021/08/15 04:57:09;;;;;;;7.90;5.80;;;18.50;99.90;;;;;;5051278;28;20165;-77
2021/08/15 04:59:34;;;;;;;6.23;4.30;;;18.50;99.90;;;;;;5033558;28;20276;-77
2021/08/15 05:02:03;;;;;;;8.73;4.50;;;18.60;99.90;;;;;;5033690;28;20264;-77
2021/08/15 05:04:29;;;;;;;6.30;3.80;;;18.60;99.90;;;;;;5050883;28;20204;-77
2021/08/15 05:06:54;;;;;;;6.80;4.03;;;18.60;99.90;;;;;;5051283;28;20567;-77
2021/08/15 05:09:20;;;;;;;8.27;4.37;;;18.60;99.90;;;;;;5051031;28;20612;-77
2021/08/15 05:11:48;;;;;;;6.67;4.80;;;18.60;99.90;;;;;;5033745;28;20166;-78
2021/08/15 05:14:14;;;;;;;6.40;4.03;;;18.70;99.90;;;;;;5051104;28;20173;-77
2021/08/15 05:16:39;;;;;;;5.47;3.57;;;18.70;99.90;;;;;;5052037;28;20568;-77
2021/08/15 05:19:05;;;;;;;6.17;4.10;;;18.80;99.90;;;;;;5034629;28;20615;-77
2021/08/15 05:21:31;;;;;;;6.73;3.43;;;18.80;99.90;;;;;;5057726;28;20197;-77
2021/08/15 05:23:58;;;;;;;6.87;4.20;;;18.80;99.90;;;;;;5056810;28;20619;-77
2021/08/15 05:26:24;;;;;;;4.97;4.00;;;18.90;99.90;;;;;;5052302;28;20228;-77
2021/08/15 05:28:50;;;;;;;5.77;3.87;;;18.90;99.90;;;;;;5052095;28;21294;-77
2021/08/15 05:31:16;;;;;;;4.20;2.93;;;19.10;99.90;;;;;;5054794;28;20641;-77
2021/08/15 05:33:42;;;;;;;8.20;4.27;;;19.10;99.90;;;;;;5055117;28;20571;-77
2021/08/15 05:36:07;;;;;;;7.07;4.87;;;19.20;99.90;;;;;;5054302;28;20564;-77
2021/08/15 05:38:33;;;;;;;7.27;4.63;;;19.20;99.90;;;;;;5054676;28;20193;-77
2021/08/15 05:40:59;;;;;;;6.87;4.07;;;19.20;99.90;;;;;;5054775;28;20171;-76
2021/08/15 05:43:24;;;;;;;10.43;6.17;;;19.20;99.90;;;;;;5054770;28;20189;-77
2021/08/15 05:45:50;;;;;;;6.83;3.93;;;19.20;99.90;;;;;;5054314;28;20525;-77
2021/08/15 05:48:16;;;;;;;8.43;4.10;;;19.30;99.90;;;;;;5054816;28;20695;-77
2021/08/15 05:50:41;;;;;;;7.97;4.77;;;19.30;99.90;;;;;;5020598;28;20219;-77
2021/08/15 05:53:07;;;;;;;6.33;5.67;;;19.40;99.90;;;;;;5037836;28;20176;-77
2021/08/15 05:55:33;;;;;;;5.50;3.60;;;19.50;99.90;;;;;;5054836;28;20173;-77
2021/08/15 05:57:58;;;;;;;5.47;3.87;;;19.60;99.90;;;;;;5041520;28;20212;-77
2021/08/15 06:00:24;;;;;;;5.37;3.77;;;19.70;99.90;;;;;;5059582;28;20193;-77
2021/08/15 06:02:50;;;;;;;6.33;4.10;;;19.90;99.90;;;;;;5060318;28;20173;-77
2021/08/15 06:05:15;;;;;;;8.97;4.67;;;20.00;99.90;;;;;;5037070;28;20284;-77
2021/08/15 06:07:41;;;;;;;4.80;3.80;;;20.10;99.90;;;;;;5054022;28;20168;-77
2021/08/15 06:10:08;;;;;;;7.23;4.07;;;20.20;99.90;;;;;;5053972;28;20220;-78
2021/08/15 06:12:35;;;;;;;5.73;4.23;;;20.30;99.90;;;;;;5064682;23;20672;-84
2021/08/15 06:15:14;;;;;;;6.50;4.07;;;20.30;99.90;;;;;;5040568;28;21277;-84
2021/08/15 06:17:41;;;;;;;5.20;4.70;;;20.50;99.90;;;;;;5029762;28;20627;-84
2021/08/15 06:20:08;;;;;;;5.40;3.70;;;20.60;99.90;;;;;;5031103;28;20590;-84
2021/08/15 06:22:45;;;;;;;7.00;3.90;;;20.70;99.90;;;;;;5036401;28;20610;-84
2021/08/15 06:25:13;;;;;;;8.63;5.10;;;20.80;99.90;;;;;;5054063;28;20950;-85
2021/08/15 06:27:45;;;;;;;6.07;3.83;;;21.10;99.90;;;;;;5054320;28;20556;-82
2021/08/15 06:30:21;;;;;;;5.50;3.93;;;21.40;99.90;;;;;;5053010;28;21399;-81
2021/08/15 06:32:49;;;;;;;6.33;3.27;;;22.10;99.90;;;;;;5052667;28;20599;-81
2021/08/15 06:35:17;;;;;;;4.40;2.93;;;22.80;99.90;;;;;;5053875;28;20595;-81
2021/08/15 06:37:42;;;;;;;6.07;4.10;;;23.50;99.90;;;;;;5053748;28;20581;-81
2021/08/15 06:40:09;;;;;;;4.10;3.40;;;24.10;99.90;;;;;;5053801;28;21110;-81
2021/08/15 06:42:34;;;;;;;5.40;3.43;;;24.50;99.90;;;;;;5035675;28;20196;-81
2021/08/15 06:45:00;;;;;;;7.43;3.10;;;24.90;99.90;;;;;;5035755;28;21178;-81
2021/08/15 06:47:26;;;;;;;4.87;3.17;;;25.10;99.90;;;;;;5055060;28;20252;-80
2021/08/15 06:49:51;;;;;;;5.57;3.97;;;25.20;99.90;;;;;;5053855;28;20166;-80
2021/08/15 06:52:17;;;;;;;4.57;3.30;;;25.50;99.90;;;;;;5053636;28;20189;-81
2021/08/15 06:54:43;;;;;;;4.00;3.33;;;25.70;99.90;;;;;;5019142;28;20173;-80
2021/08/15 06:57:08;;;;;;;4.13;3.00;;;25.90;99.90;;;;;;5053729;28;20920;-80
2021/08/15 06:59:34;;;;;;;4.93;3.50;;;26.10;99.90;;;;;;5053871;28;20706;-80
2021/08/15 07:02:00;;;;;;;3.30;2.80;;;26.30;99.90;;;;;;5055228;28;20223;-79
2021/08/15 07:04:38;;;;;;;7.40;4.10;;;26.60;99.90;;;;;;5056204;28;20228;-79
2021/08/15 07:07:04;;;;;;;5.20;3.07;;;26.80;99.90;;;;;;5056928;28;20759;-79
2021/08/15 07:09:29;;;;;;;4.23;3.10;;;27.40;99.90;;;;;;5055626;28;20666;-79
2021/08/15 07:11:55;;;;;;;6.90;3.60;;;27.90;99.90;;;;;;5054764;28;20600;-80
2021/08/15 07:14:21;;;;;;;4.40;3.20;;;28.40;99.90;;;;;;5020038;28;20200;-82
2021/08/15 07:16:46;;;;;;;5.43;3.30;;;28.70;99.90;;;;;;5054499;28;20166;-82
2021/08/15 07:19:15;;;;;;;5.70;3.00;;;28.80;99.90;;;;;;5037854;28;20196;-83
2021/08/15 07:21:40;;;;;;;4.37;3.40;;;28.80;99.90;;;;;;5056721;28;20200;-82
2021/08/15 07:24:06;;;;;;;5.10;2.90;;;28.60;99.90;;;;;;5059851;28;20607;-83
2021/08/15 07:26:32;;;;;;;3.70;2.60;;;28.70;99.90;;;;;;5035949;28;20165;-83
2021/08/15 07:28:58;;;;;;;4.67;3.57;;;28.80;99.90;;;;;;5021891;28;20157;-83
2021/08/15 07:31:24;;;;;;;4.10;3.30;;;29.00;99.90;;;;;;5035708;28;20626;-82
2021/08/15 07:33:49;;;;;;;3.90;3.10;;;29.10;99.90;;;;;;5053537;28;20180;-84
2021/08/15 07:36:15;;;;;;;4.20;2.70;;;29.20;99.90;;;;;;5018519;28;20181;-83
2021/08/15 07:38:41;;;;;;;4.30;3.13;;;29.20;99.90;;;;;;5035085;28;20185;-83
2021/08/15 07:41:06;;;;;;;4.40;2.40;;;29.60;99.90;;;;;;5052782;28;20193;-84
2021/08/15 07:43:32;;;;;;;7.00;3.23;;;29.70;99.90;;;;;;5052446;28;20778;-83
2021/08/15 07:45:58;;;;;;;4.87;2.63;;;30.00;99.90;;;;;;5033074;28;20224;-84
2021/08/15 07:48:24;;;;;;;4.07;2.83;;;30.10;99.90;;;;;;5052864;28;20509;-82
2021/08/15 07:50:51;;;;;;;4.10;3.20;;;30.30;99.90;;;;;;5052776;28;20562;-83
2021/08/15 07:53:25;;;;;;;4.00;2.53;;;30.60;99.90;;;;;;5052292;28;20234;-82
2021/08/15 07:55:52;;;;;;;3.40;2.47;;;31.00;99.60;;;;;;5034410;28;20569;-82
2021/08/15 07:58:19;;;;;;;3.97;2.57;;;31.40;99.50;;;;;;5052164;28;20583;-83
2021/08/15 08:00:46;;;;;;;2.80;2.50;;;31.60;98.80;;;;;;5055455;28;20612;-82
2021/08/15 08:03:12;;;;;;;4.70;2.50;;;32.00;98.60;;;;;;5052142;28;20617;-83
2021/08/15 08:05:38;;;;;;;3.77;2.57;;;32.50;97.70;;;;;;5033903;28;20571;-82
2021/08/15 08:08:04;;;;;;;3.93;3.07;;;32.80;96.80;;;;;;5034498;28;21020;-82
2021/08/15 08:10:30;;;;;;;5.90;2.50;;;33.30;95.70;;;;;;5034014;28;20572;-82
2021/08/15 08:12:56;;;;;;;5.30;2.60;;;33.60;94.20;;;;;;5051987;28;20718;-82
2021/08/15 08:15:22;;;;;;;4.23;2.53;;;33.50;92.00;;;;;;5033805;28;20601;-81
2021/08/15 08:17:48;;;;;;;5.63;3.10;;;33.30;90.80;;;;;;5050737;28;20234;-81
2021/08/15 08:20:16;;;;;;;6.73;3.20;;;33.10;90.20;;;;;;5050920;28;20872;-82
2021/08/15 08:22:42;;;;;;;5.53;2.57;;;32.80;89.20;;;;;;5034398;28;20283;-82
2021/08/15 08:25:08;;;;;;;4.50;2.30;;;32.80;90.50;;;;;;5033962;28;20715;-82
2021/08/15 08:27:34;;;;;;;2.90;2.43;;;33.00;90.40;;;;;;5051689;28;20622;-82
2021/08/15 08:29:59;;;;;;;3.60;2.03;;;33.10;90.00;;;;;;5052224;28;20663;-82
2021/08/15 08:32:25;;;;;;;4.70;2.50;;;33.10;89.10;;;;;;5052077;28;20190;-82
2021/08/15 08:34:51;;;;;;;7.63;2.70;;;33.00;87.70;;;;;;5051973;28;20207;-82
2021/08/15 08:37:18;;;;;;;4.10;2.20;;;32.80;87.30;;;;;;5034247;28;20597;-82
2021/08/15 08:39:44;;;;;;;4.87;2.93;;;32.80;87.70;;;;;;5050254;28;20175;-82
2021/08/15 08:42:12;;;;;;;4.60;2.50;;;33.30;88.10;;;;;;5044583;28;20640;-81
2021/08/15 08:44:38;;;;;;;4.43;2.60;;;33.70;87.80;;;;;;5033844;28;20415;-82
2021/08/15 08:47:07;;;;;;;4.43;2.40;;;34.20;87.50;;;;;;5025145;28;20591;-81
2021/08/15 08:49:38;;;;;;;3.17;2.07;;;34.60;86.40;;;;;;5018414;28;20640;-83
2021/08/15 08:52:05;;;;;;;4.17;2.60;;;34.90;84.90;;;;;;5051533;28;20666;-84
2021/08/15 08:54:32;;;;;;;2.97;2.10;;;35.00;82.00;;;;;;5051609;28;20659;-81
2021/08/15 08:56:58;;;;;;;4.13;2.23;;;35.00;79.80;;;;;;5033609;28;20590;-80
2021/08/15 08:59:25;;;;;;;3.53;2.43;;;34.90;78.80;;;;;;5051356;28;20609;-81
2021/08/15 09:01:51;;;;;;;4.20;2.70;;;35.00;79.30;;;;;;5033595;28;20595;-80
2021/08/15 09:04:17;;;;;;;15.80;3.00;;;35.20;78.30;;;;;;5036612;28;21033;-80
2021/08/15 09:06:43;;;;;;;4.10;2.47;;;35.60;79.00;;;;;;5055972;28;20564;-80
2021/08/15 09:09:18;;;;;;;3.30;2.43;;;35.90;78.60;;;;;;5038145;28;21134;-80
2021/08/15 09:11:47;;;;;;;4.50;2.43;;;36.00;75.50;;;;;;5038095;28;21213;-80
2021/08/15 09:14:19;;;;;;;4.00;2.60;;;36.00;72.60;;;;;;5023622;28;20567;-81
2021/08/15 09:16:48;;;;;;;6.03;2.10;;;35.70;70.90;;;;;;5029037;28;20599;-80
2021/08/15 09:19:39;;;;;;;4.57;2.00;;;35.50;72.40;;;;;;5047543;28;20572;-81
2021/08/15 09:22:13;;;;;;;4.43;2.27;;;35.30;71.50;;;;;;5029935;28;20674;-82
2021/08/15 09:24:57;;;;;;;3.20;2.30;;;34.90;70.50;;;;;;5025848;28;20661;-82
2021/08/15 09:27:44;;;;;;;3.40;2.30;;;34.90;72.40;;;;;;5042888;28;20906;-83
2021/08/15 09:30:36;;;;;;;5.23;2.40;;;35.00;73.10;;;;;;5023778;28;20626;-82
2021/08/15 09:33:04;;;;;;;5.60;2.10;;;35.20;73.80;;;;;;5032985;28;20588;-82
2021/08/15 09:35:36;;;;;;;4.60;1.73;;;35.50;72.80;;;;;;5008186;28;20584;-83
2021/08/15 09:38:17;;;;;;;4.47;2.00;;;35.70;72.20;;;;;;5041549;28;20572;-82
2021/08/15 09:40:46;;;;;;;3.00;2.20;;;35.90;72.40;;;;;;5034900;28;20556;-82
2021/08/15 09:43:24;;;;;;;3.67;2.10;;;36.30;73.00;;;;;;5022713;28;20659;-83
2021/08/15 09:45:51;;;;;;;2.00;1.53;;;36.90;72.80;;;;;;5014881;28;20950;-82
2021/08/15 09:48:38;;;;;;;3.20;1.60;;;37.30;71.40;;;;;;5032530;28;20606;-82
2021/08/15 09:51:11;;;;;;;4.40;1.77;;;37.60;68.30;;;;;;5045172;28;20607;-82
2021/08/15 09:53:41;;;;;;;3.67;2.33;;;37.90;68.50;;;;;;5017370;28;20994;-83
2021/08/15 09:56:06;;;;;;;3.03;1.97;;;38.00;65.60;;;;;;5042728;28;20576;-83
2021/08/15 09:58:32;;;;;;;3.53;1.77;;;37.90;63.90;;;;;;5036430;28;20636;-83
2021/08/15 10:01:02;;;;;;;3.70;1.50;;;37.60;62.70;;;;;;5056510;28;20232;-83
2021/08/15 10:03:28;;;;;;;3.80;1.47;;;37.50;62.10;;;;;;5038610;28;20270;-82
2021/08/15 10:05:56;;;;;;;3.13;1.40;;;37.30;61.60;;;;;;5022504;28;20930;-82
2021/08/15 10:08:23;;;;;;;2.93;1.40;;;37.00;60.50;;;;;;5039920;28;20567;-82
2021/08/15 10:10:49;;;;;;;3.10;1.63;;;36.80;60.20;;;;;;5038607;28;20832;-82
2021/08/15 10:13:17;;;;;;;2.63;1.63;;;36.60;60.40;;;;;;5038642;28;20590;-82
2021/08/15 10:15:51;;;;;;;2.93;1.57;;;36.60;62.70;;;;;;5030065;28;20188;-82
2021/08/15 10:18:20;;;;;;;5.90;1.90;;;37.10;64.30;;;;;;5047159;28;20576;-82
2021/08/15 10:20:48;;;;;;;4.33;1.47;;;37.80;64.50;;;;;;5036877;28;20579;-82
2021/08/15 10:23:14;;;;;;;5.90;2.03;;;38.70;64.90;;;;;;5046734;28;20626;-82
2021/08/15 10:25:44;;;;;;;3.40;1.30;;;39.60;63.50;;;;;;5045355;28;20716;-82
2021/08/15 10:28:29;;;;;;;2.83;1.83;;;40.50;62.10;;;;;;5035206;28;20640;-82
2021/08/15 10:30:57;;;;;;;3.20;1.73;;;41.50;61.10;;;;;;5048345;28;20652;-81
2021/08/15 10:33:25;;;;;;;6.30;1.30;;;42.30;58.60;;;;;;5051865;28;20576;-81
2021/08/15 10:36:15;;;;;;;2.00;1.20;;;42.90;56.90;;;;;;5037807;28;20679;-81
2021/08/15 10:38:41;;;;;;;2.00;1.47;;;43.60;55.80;;;;;;5017263;28;20563;-81
2021/08/15 10:41:07;;;;;;;4.07;1.50;;;43.80;53.10;;;;;;5016999;28;20997;-81
2021/08/15 10:43:32;;;;;;;2.37;1.77;;;43.60;50.80;;;;;;5017492;28;20205;-82
2021/08/15 10:46:22;;;;;;;3.80;1.90;;;43.20;49.30;;;;;;5000727;28;20231;-83
2021/08/15 10:48:54;;;;;;;2.90;2.10;;;42.70;47.40;;;;;;5002905;28;20182;-83
2021/08/15 10:51:50;;;;;;;2.70;1.90;;;41.80;47.20;;;;;;5033862;28;20603;-82
2021/08/15 10:54:28;;;;;;;3.07;1.80;;;41.10;48.20;;;;;;5019506;28;21261;-81
2021/08/15 10:57:04;;;;;;;6.57;3.37;;;40.60;47.70;;;;;;5018170;28;20576;-81
2021/08/15 10:59:41;;;;;;;2.77;1.30;;;40.40;48.20;;;;;;5000945;28;20569;-82
2021/08/15 11:02:11;;;;;;;4.20;1.90;;;40.30;48.30;;;;;;5034488;28;20614;-82
2021/08/15 11:04:39;;;;;;;4.20;1.97;;;40.40;48.90;;;;;;5039149;28;20564;-81
2021/08/15 11:07:08;;;;;;;3.83;1.43;;;40.50;48.30;;;;;;5017583;28;20577;-82
2021/08/15 11:09:55;;;;;;;4.00;1.30;;;40.50;47.70;;;;;;5034126;28;20575;-83
2021/08/15 11:12:24;;;;;;;2.50;1.60;;;40.50;47.30;;;;;;5016188;28;20620;-83
2021/08/15 11:14:55;;;;;;;3.03;1.30;;;40.60;47.10;;;;;;5015688;28;20624;-83
2021/08/15 11:17:22;;;;;;;2.53;1.43;;;40.70;46.80;;;;;;5031826;28;20569;-83
2021/08/15 11:19:48;;;;;;;2.60;1.80;;;40.60;46.50;;;;;;5033069;28;20604;-82
2021/08/15 11:22:21;;;;;;;2.57;1.80;;;40.50;45.80;;;;;;5015316;28;21014;-82
2021/08/15 11:25:00;;;;;;;2.23;1.70;;;40.40;46.00;;;;;;5015144;28;20996;-83
2021/08/15 11:27:40;;;;;;;4.43;1.57;;;40.10;45.30;;;;;;5031774;28;20667;-83
2021/08/15 11:30:18;;;;;;;6.80;2.40;;;39.90;45.70;;;;;;5033275;28;20671;-83
2021/08/15 11:32:52;;;;;;;3.00;2.10;;;39.70;45.70;;;;;;5015100;28;20755;-82
2021/08/15 11:35:18;;;;;;;2.67;1.67;;;39.50;46.00;;;;;;5034084;28;20572;-83
2021/08/15 11:37:52;;;;;;;4.50;1.70;;;39.40;45.80;;;;;;5032444;28;20568;-83
2021/08/15 11:40:25;;;;;;;3.73;1.50;;;39.30;46.20;;;;;;5039418;28;20184;-83
2021/08/15 11:43:06;;;;;;;3.87;2.13;;;39.30;46.20;;;;;;5032729;28;20592;-83
2021/08/15 11:45:35;;;;;;;2.63;2.07;;;39.20;46.60;;;;;;5031108;28;20583;-83
2021/08/15 11:48:22;;;;;;;3.90;3.33;;;39.30;46.70;;;;;;5032404;28;20567;-83
2021/08/15 11:50:51;;;;;;;2.47;2.27;;;39.20;46.70;;;;;;5032216;28;20688;-83
2021/08/15 11:53:24;;;;;;;1.60;1.20;;;39.30;46.60;;;;;;5015055;28;20722;-83
2021/08/15 11:55:54;;;;;;;4.87;1.63;;;39.30;46.70;;;;;;5014765;28;21178;-83
2021/08/15 11:58:20;;;;;;;3.93;1.33;;;39.30;46.30;;;;;;5032487;28;20978;-83
2021/08/15 12:00:47;;;;;;;2.93;1.40;;;39.40;46.40;;;;;;4982039;28;20577;-83
2021/08/15 12:03:17;;;;;;;3.67;1.50;;;39.40;46.40;;;;;;5014823;28;20560;-83
2021/08/15 12:05:44;;;;;;;3.70;1.60;;;39.40;46.20;;;;;;5014199;28;20564;-83
2021/08/15 12:08:12;;;;;;;3.30;1.40;;;39.40;45.80;;;;;;5032077;28;20950;-83
2021/08/15 12:10:50;;;;;;;2.10;1.20;;;39.30;45.50;;;;;;5014597;28;20572;-83
2021/08/15 12:13:37;;;;;;;4.00;1.47;;;39.20;45.20;;;;;;5056592;23;20667;-78
2021/08/15 12:16:03;;;;;;;3.47;2.10;;;39.10;45.30;;;;;;5056458;28;20576;-80
2021/08/15 12:18:31;;;;;;;3.10;1.93;;;39.10;44.60;;;;;;5056045;28;20590;-79
2021/08/15 12:21:00;;;;;;;3.93;1.53;;;38.90;44.60;;;;;;5055910;28;20192;-79
2021/08/15 12:23:29;;;;;;;3.90;1.30;;;38.70;44.30;;;;;;5039065;28;20962;-79
2021/08/15 12:26:07;;;;;;;1.93;1.40;;;38.40;44.40;;;;;;5038397;28;20586;-79
2021/08/15 12:28:35;;;;;;;1.70;1.30;;;38.20;44.40;;;;;;5037918;28;20614;-79
2021/08/15 12:31:25;;;;;;;1.70;1.00;;;38.00;44.60;;;;;;5035934;28;20579;-79
2021/08/15 12:34:09;;;;;;;3.40;2.10;;;37.80;45.00;;;;;;5056205;28;20627;-79
2021/08/15 12:36:51;;;;;;;2.80;1.50;;;37.70;44.90;;;;;;5035025;28;20656;-79
2021/08/15 12:39:18;;;;;;;2.17;1.40;;;37.50;44.60;;;;;;5017452;28;20564;-79
2021/08/15 12:41:50;;;;;;;4.50;1.73;;;37.40;45.80;;;;;;5033889;28;21022;-78
2021/08/15 12:44:18;;;;;;;3.23;1.30;;;37.30;45.10;;;;;;5051396;28;20575;-79
2021/08/15 12:46:54;;;;;;;2.47;1.63;;;37.10;45.00;;;;;;5033542;28;20579;-78
2021/08/15 12:49:43;;;;;;;2.97;1.63;;;36.90;44.80;;;;;;5033740;28;20622;-79
2021/08/15 12:52:25;;;;;;;2.70;1.93;;;36.60;45.10;;;;;;5017255;28;21262;-79